Time;durP1;ratioP1;P1;durP2;ratioP2;P2;SDS_P1;SDS_P2;PMS_P1;PMS_P2;Temp;Humidity;BMP_temperature;BMP_pressure;BME280_temperature;BME280_humidity;BME280_pressure;Samples;Min_cycle;Max_cycle;Signal;HPM_P1;HPM_P2
2022/04/05 00:01:57;;;;;;;21.50;10.90;;;;;;;9.81;98.36;100477.84;5056269;28;20374;-66
2022/04/05 00:04:22;;;;;;;18.58;9.68;;;;;;;9.81;98.65;100470.84;5056352;28;20036;-66
2022/04/05 00:06:48;;;;;;;22.90;11.18;;;;;;;9.81;98.74;100469.94;5056104;28;20017;-67
2022/04/05 00:09:13;;;;;;;19.23;11.02;;;;;;;9.81;98.67;100475.22;5056152;28;20099;-67
2022/04/05 00:11:39;;;;;;;22.33;11.00;;;;;;;9.82;98.70;100469.09;5056347;28;20029;-66
2022/04/05 00:14:09;;;;;;;19.08;10.27;;;;;;;9.82;98.52;100480.53;5056158;28;20029;-66
2022/04/05 00:16:34;;;;;;;20.70;9.63;;;;;;;9.82;98.48;100471.72;5056236;28;20025;-67
2022/04/05 00:19:00;;;;;;;22.05;10.60;;;;;;;9.82;98.31;100474.38;5056024;28;20384;-67
2022/04/05 00:21:26;;;;;;;19.48;9.63;;;;;;;9.78;98.37;100473.44;5055900;28;20021;-67
2022/04/05 00:23:51;;;;;;;16.60;9.00;;;;;;;9.79;98.44;100478.72;5055863;28;20064;-67
2022/04/05 00:26:17;;;;;;;18.42;10.50;;;;;;;9.77;98.69;100480.50;5056006;28;20019;-67
2022/04/05 00:28:42;;;;;;;21.15;10.43;;;;;;;9.79;98.65;100489.28;5055668;28;20102;-68
2022/04/05 00:31:07;;;;;;;17.85;9.75;;;;;;;9.77;98.73;100488.41;5055907;28;20469;-68
2022/04/05 00:33:33;;;;;;;15.65;9.63;;;;;;;9.75;98.50;100486.59;5055686;28;20017;-66
2022/04/05 00:35:59;;;;;;;16.92;9.80;;;;;;;9.76;98.87;100480.44;5055542;28;20017;-66
2022/04/05 00:38:24;;;;;;;20.05;9.30;;;;;;;9.76;99.01;100477.81;5055410;28;20064;-66
2022/04/05 00:40:50;;;;;;;18.58;9.38;;;;;;;9.72;99.17;100487.47;5055620;28;20074;-65
2022/04/05 00:43:15;;;;;;;15.48;8.55;;;;;;;9.72;99.07;100479.56;5055591;28;20078;-65
2022/04/05 00:45:40;;;;;;;15.18;8.57;;;;;;;9.72;99.38;100481.28;5055607;28;20025;-65
2022/04/05 00:48:07;;;;;;;16.05;8.50;;;;;;;9.72;99.18;100492.75;5055610;28;20025;-65
2022/04/05 00:50:36;;;;;;;17.08;8.65;;;;;;;9.72;98.98;100489.22;5055519;28;20088;-65
2022/04/05 00:53:07;;;;;;;15.65;8.65;;;;;;;9.71;99.42;100485.69;5055458;28;20083;-65
2022/04/05 00:55:36;;;;;;;19.95;9.18;;;;;;;9.71;99.40;100490.97;5055660;28;20036;-65
2022/04/05 00:58:04;;;;;;;13.35;8.57;;;;;;;9.67;99.30;100480.38;5055548;28;20104;-65
2022/04/05 01:00:32;;;;;;;17.92;8.82;;;;;;;9.68;99.44;100488.34;5037687;28;20028;-65
2022/04/05 01:02:59;;;;;;;14.52;8.35;;;;;;;9.67;99.43;100486.53;5055180;28;20508;-64
2022/04/05 01:05:27;;;;;;;19.35;9.00;;;;;;;9.69;99.48;100490.09;5055126;28;20052;-65
2022/04/05 01:07:55;;;;;;;17.35;8.15;;;;;;;9.69;99.51;100483.94;5055117;28;20025;-65
2022/04/05 01:10:21;;;;;;;16.40;8.70;;;;;;;9.70;99.56;100488.34;5037147;28;20115;-65
2022/04/05 01:12:48;;;;;;;17.13;8.60;;;;;;;9.69;99.55;100495.38;5055189;28;20578;-65
2022/04/05 01:15:13;;;;;;;18.35;8.40;;;;;;;9.69;99.73;100495.38;5055116;28;20029;-65
2022/04/05 01:17:39;;;;;;;19.48;9.07;;;;;;;9.69;99.57;100494.50;5055025;28;20036;-64
2022/04/05 01:20:06;;;;;;;15.05;8.50;;;;;;;9.69;99.55;100497.13;5055375;28;20021;-66
2022/04/05 01:22:31;;;;;;;14.80;8.27;;;;;;;9.65;99.58;100496.22;5055151;28;20056;-65
2022/04/05 01:24:57;;;;;;;16.67;9.15;;;;;;;9.67;100.00;100493.56;5055104;28;20470;-65
2022/04/05 01:27:27;;;;;;;14.40;9.27;;;;;;;9.69;99.57;100497.13;5055119;28;20029;-65
2022/04/05 01:29:56;;;;;;;15.82;8.32;;;;;;;9.67;99.82;100499.72;5054991;28;20040;-65
2022/04/05 01:32:21;;;;;;;13.82;9.00;;;;;;;9.68;99.70;100501.53;5054648;28;20103;-65
2022/04/05 01:34:47;;;;;;;14.85;9.45;;;;;;;9.66;99.88;100508.53;5054709;28;20105;-66
2022/04/05 01:37:13;;;;;;;18.08;9.70;;;;;;;9.67;99.75;100501.50;5054569;28;20082;-65
2022/04/05 01:39:42;;;;;;;16.77;9.00;;;;;;;9.66;99.62;100500.59;5038502;28;20043;-65
2022/04/05 01:42:10;;;;;;;13.88;9.23;;;;;;;9.66;99.85;100507.63;5054994;28;20025;-65
2022/04/05 01:44:45;;;;;;;15.52;9.18;;;;;;;9.66;99.76;100507.63;5054790;28;20021;-65
2022/04/05 01:47:15;;;;;;;13.98;8.70;;;;;;;9.64;99.92;100505.00;5054674;28;20057;-65
2022/04/05 01:49:43;;;;;;;14.98;8.90;;;;;;;9.64;99.95;100501.47;5054502;28;20025;-65
2022/04/05 01:52:09;;;;;;;17.92;9.88;;;;;;;9.64;99.89;100499.72;5054712;28;20354;-65
2022/04/05 01:54:37;;;;;;;20.17;10.20;;;;;;;9.62;99.73;100501.44;5054332;28;20025;-65
2022/04/05 01:57:03;;;;;;;14.57;10.18;;;;;;;9.65;99.43;100498.84;5054309;28;20099;-65
2022/04/05 01:59:31;;;;;;;19.45;9.75;;;;;;;9.63;99.56;100508.47;5054120;28;20017;-65
2022/04/05 02:01:57;;;;;;;20.00;9.75;;;;;;;9.61;99.58;100499.69;5054124;28;20100;-65
2022/04/05 02:04:23;;;;;;;16.35;9.55;;;;;;;9.64;99.26;100506.75;5053946;28;20486;-65
2022/04/05 02:06:49;;;;;;;18.35;10.90;;;;;;;9.63;99.16;100500.56;5054044;28;20037;-65
2022/04/05 02:09:16;;;;;;;15.60;9.70;;;;;;;9.63;99.09;100504.97;5054053;28;20032;-65
2022/04/05 02:11:47;;;;;;;19.02;10.80;;;;;;;9.63;99.30;100499.69;5053945;28;20045;-65
2022/04/05 02:14:14;;;;;;;18.63;10.82;;;;;;;9.63;99.07;100503.22;5054072;28;20025;-65
2022/04/05 02:16:40;;;;;;;17.27;10.18;;;;;;;9.61;99.00;100507.59;5054085;28;20449;-65
2022/04/05 02:19:06;;;;;;;14.40;10.07;;;;;;;9.63;99.06;100512.88;5053721;28;20478;-66
2022/04/05 02:21:32;;;;;;;15.85;10.43;;;;;;;9.62;99.02;100505.84;5053759;28;20033;-65
2022/04/05 02:23:58;;;;;;;21.17;11.00;;;;;;;9.62;99.05;100508.47;5053682;28;20407;-65
2022/04/05 02:26:23;;;;;;;21.35;10.77;;;;;;;9.63;99.08;100512.88;5053760;28;20028;-65
2022/04/05 02:28:49;;;;;;;14.70;9.80;;;;;;;9.63;98.74;100511.13;5053400;28;20056;-65
2022/04/05 02:31:16;;;;;;;18.15;10.25;;;;;;;9.63;98.60;100511.13;5035748;28;20021;-65
2022/04/05 02:33:41;;;;;;;18.15;10.18;;;;;;;9.66;98.80;100512.91;5053500;28;20040;-65
2022/04/05 02:36:07;;;;;;;17.63;10.10;;;;;;;9.62;98.74;100505.84;5053372;28;20374;-65
2022/04/05 02:38:33;;;;;;;17.38;10.50;;;;;;;9.63;98.73;100508.47;5053683;28;20029;-65
2022/04/05 02:40:59;;;;;;;20.10;10.57;;;;;;;9.62;98.61;100513.75;5053548;28;20032;-65
2022/04/05 02:43:25;;;;;;;16.08;10.13;;;;;;;9.62;99.16;100511.13;5053239;28;20470;-65
2022/04/05 02:45:52;;;;;;;13.95;9.30;;;;;;;9.60;98.91;100511.13;5053402;28;20087;-65
2022/04/05 02:48:17;;;;;;;18.30;9.43;;;;;;;9.63;98.53;100504.97;5053200;28;20473;-65
2022/04/05 02:50:43;;;;;;;17.40;9.45;;;;;;;9.62;98.51;100501.44;5053342;28;20108;-65
2022/04/05 02:53:08;;;;;;;18.50;9.50;;;;;;;9.64;98.48;100505.00;5035362;28;20107;-65
2022/04/05 02:55:34;;;;;;;19.73;10.00;;;;;;;9.62;98.06;100512.00;5053131;28;20024;-65
2022/04/05 02:57:59;;;;;;;16.08;8.48;;;;;;;9.62;98.25;100509.34;5052336;28;20116;-65
2022/04/05 03:00:26;;;;;;;17.25;8.95;;;;;;;9.63;98.52;100502.31;5053183;28;20033;-65
2022/04/05 03:02:51;;;;;;;13.23;7.65;;;;;;;9.63;98.29;100504.97;5053173;28;20033;-65
2022/04/05 03:05:19;;;;;;;16.90;8.93;;;;;;;9.66;98.74;100505.00;5053017;28;20029;-65
2022/04/05 03:07:44;;;;;;;17.00;8.65;;;;;;;9.62;98.36;100493.53;5052911;28;20028;-65
2022/04/05 03:10:11;;;;;;;18.85;9.05;;;;;;;9.65;98.32;100506.75;5053048;28;20373;-65
2022/04/05 03:12:37;;;;;;;11.73;7.53;;;;;;;9.65;97.89;100509.41;5052908;28;20032;-65
2022/04/05 03:15:04;;;;;;;15.98;8.98;;;;;;;9.67;98.01;100502.38;5053070;28;20059;-65
2022/04/05 03:17:30;;;;;;;15.73;7.97;;;;;;;9.67;97.94;100505.00;5052997;28;20029;-65
2022/04/05 03:19:55;;;;;;;15.55;8.30;;;;;;;9.61;97.93;100494.41;5052891;28;20046;-65
2022/04/05 03:22:21;;;;;;;13.45;7.93;;;;;;;9.67;97.81;100509.41;5052828;28;20470;-65
2022/04/05 03:24:46;;;;;;;16.55;7.90;;;;;;;9.66;97.94;100510.28;5053113;28;20146;-65
2022/04/05 03:27:12;;;;;;;14.98;8.65;;;;;;;9.68;98.15;100511.19;5052831;28;20485;-65
2022/04/05 03:29:41;;;;;;;13.43;7.72;;;;;;;9.68;97.99;100506.78;5052598;28;20142;-65
2022/04/05 03:32:06;;;;;;;13.00;7.88;;;;;;;9.68;97.72;100508.56;5052851;28;20116;-65
2022/04/05 03:34:35;;;;;;;12.90;7.47;;;;;;;9.68;97.28;100504.16;5052623;28;20100;-68
2022/04/05 03:37:00;;;;;;;15.00;7.97;;;;;;;9.68;97.73;100505.91;5052780;28;20029;-68
2022/04/05 03:39:26;;;;;;;16.15;8.55;;;;;;;9.69;97.83;100500.66;5034895;28;20382;-67
2022/04/05 03:41:52;;;;;;;13.93;7.78;;;;;;;9.66;97.59;100499.72;5034911;28;20021;-67
2022/04/05 03:44:17;;;;;;;13.77;7.82;;;;;;;9.68;97.88;100503.28;5052694;28;20032;-67
2022/04/05 03:46:43;;;;;;;15.55;8.90;;;;;;;9.67;98.06;100499.72;5052767;28;20422;-67
2022/04/05 03:49:08;;;;;;;14.80;8.05;;;;;;;9.67;97.81;100499.72;5034741;28;20120;-68
2022/04/05 03:51:34;;;;;;;11.15;8.07;;;;;;;9.66;97.89;100511.16;5052729;28;20021;-67
2022/04/05 03:54:00;;;;;;;15.13;8.32;;;;;;;9.64;97.55;100496.22;5052628;28;20052;-65
2022/04/05 03:56:26;;;;;;;13.80;7.97;;;;;;;9.65;97.80;100492.69;5052735;28;20473;-65
2022/04/05 03:58:51;;;;;;;10.57;7.28;;;;;;;9.67;97.38;100499.72;5052597;28;20032;-65
2022/04/05 04:01:17;;;;;;;14.43;8.30;;;;;;;9.67;97.30;100499.72;5052572;28;20024;-65
2022/04/05 04:03:43;;;;;;;17.75;8.18;;;;;;;9.65;97.50;100493.56;5052434;28;20035;-65
2022/04/05 04:06:09;;;;;;;13.32;7.28;;;;;;;9.61;97.70;100489.13;5052371;28;20017;-67
2022/04/05 04:08:35;;;;;;;13.90;8.73;;;;;;;9.68;97.18;100500.63;5054302;28;20381;-67
2022/04/05 04:11:02;;;;;;;13.35;8.48;;;;;;;9.69;97.43;100492.72;5056526;28;20075;-67
2022/04/05 04:13:28;;;;;;;14.38;7.93;;;;;;;9.69;97.31;100499.75;5056447;28;20033;-67
2022/04/05 04:15:54;;;;;;;11.75;7.22;;;;;;;9.67;96.99;100499.72;5056383;28;20425;-67
2022/04/05 04:18:19;;;;;;;10.73;7.50;;;;;;;9.69;96.96;100497.13;5056093;28;20504;-67
2022/04/05 04:20:45;;;;;;;15.88;8.30;;;;;;;9.69;97.16;100508.56;5056100;28;20103;-67
2022/04/05 04:23:11;;;;;;;12.77;7.00;;;;;;;9.68;96.45;100493.59;5055881;28;20382;-67
2022/04/05 04:25:38;;;;;;;13.02;7.88;;;;;;;9.68;96.69;100498.88;5056397;28;20025;-66
2022/04/05 04:28:08;;;;;;;16.23;7.85;;;;;;;9.68;96.88;100501.53;5056472;28;20037;-67
2022/04/05 04:30:34;;;;;;;11.90;7.93;;;;;;;9.66;97.25;100491.81;5056136;28;20025;-67
2022/04/05 04:33:00;;;;;;;14.93;7.85;;;;;;;9.68;97.05;100493.59;5055947;28;20047;-67
2022/04/05 04:35:27;;;;;;;12.40;7.22;;;;;;;9.67;97.01;100497.09;5055821;28;20086;-67
2022/04/05 04:37:53;;;;;;;15.52;8.73;;;;;;;9.68;97.35;100490.09;5037707;28;20029;-67
2022/04/05 04:40:19;;;;;;;13.23;8.02;;;;;;;9.66;96.94;100497.97;5055808;28;20029;-67
2022/04/05 04:42:45;;;;;;;11.43;7.63;;;;;;;9.62;97.08;100487.38;5055651;28;20501;-67
2022/04/05 04:45:11;;;;;;;15.43;8.07;;;;;;;9.68;97.02;100503.28;5055587;28;20040;-66
2022/04/05 04:47:37;;;;;;;11.27;7.75;;;;;;;9.68;97.30;100505.91;5055544;28;20539;-67
2022/04/05 04:50:04;;;;;;;12.60;8.02;;;;;;;9.66;97.00;100499.72;5055860;28;20029;-67
2022/04/05 04:52:29;;;;;;;10.55;7.40;;;;;;;9.68;97.36;100508.56;5055317;28;20083;-67
2022/04/05 04:54:55;;;;;;;10.07;7.35;;;;;;;9.69;96.79;100499.75;5055695;28;20029;-67
2022/04/05 04:57:22;;;;;;;12.85;8.02;;;;;;;9.69;97.08;100508.56;5055545;28;20021;-67
2022/04/05 05:00:04;;;;;;;12.82;8.40;;;;;;;9.66;96.98;100500.59;5055567;28;20025;-67
2022/04/05 05:02:29;;;;;;;15.20;8.20;;;;;;;9.69;97.21;100505.91;5055186;28;20052;-67
2022/04/05 05:04:55;;;;;;;11.85;7.68;;;;;;;9.68;97.29;100504.16;5055095;28;20457;-67
2022/04/05 05:07:20;;;;;;;14.38;8.25;;;;;;;9.69;97.19;100507.69;5055198;28;20076;-67
2022/04/05 05:09:46;;;;;;;11.13;7.15;;;;;;;9.69;96.86;100505.91;5055200;28;20482;-67
2022/04/05 05:12:11;;;;;;;10.60;7.80;;;;;;;9.69;96.75;100513.84;5037208;28;20052;-67
2022/04/05 05:14:37;;;;;;;12.95;7.65;;;;;;;9.68;97.09;100506.78;5055180;28;20064;-67
2022/04/05 05:17:04;;;;;;;12.73;8.35;;;;;;;9.69;97.59;100512.94;5055030;28;20021;-67
2022/04/05 05:19:29;;;;;;;12.45;8.43;;;;;;;9.68;97.45;100511.19;5053892;28;20029;-67
2022/04/05 05:21:55;;;;;;;11.23;8.02;;;;;;;9.69;97.24;100518.22;5054668;28;20025;-67
2022/04/05 05:24:20;;;;;;;11.55;8.15;;;;;;;9.69;97.28;100516.47;5054991;28;20044;-67
2022/04/05 05:26:46;;;;;;;12.20;8.25;;;;;;;9.70;97.42;100523.50;5054731;28;20496;-67
2022/04/05 05:29:12;;;;;;;9.40;7.28;;;;;;;9.70;97.09;100522.63;5054176;28;20402;-67
2022/04/05 05:31:38;;;;;;;11.20;7.95;;;;;;;9.70;97.21;100520.00;5054115;28;20036;-67
2022/04/05 05:34:03;;;;;;;10.13;6.68;;;;;;;9.69;96.86;100516.47;5054149;28;20032;-67
2022/04/05 05:36:29;;;;;;;10.50;7.50;;;;;;;9.68;97.07;100520.00;5053866;28;20120;-67
2022/04/05 05:38:54;;;;;;;11.38;7.53;;;;;;;9.71;97.24;100519.13;5054048;28;20068;-67
2022/04/05 05:41:20;;;;;;;10.10;7.32;;;;;;;9.71;97.50;100519.13;5054032;28;20021;-67
2022/04/05 05:43:51;;;;;;;12.40;7.28;;;;;;;9.70;97.44;100520.88;5053866;28;20120;-67
2022/04/05 05:46:16;;;;;;;11.50;7.65;;;;;;;9.72;97.41;100523.50;5053883;28;20532;-67
2022/04/05 05:48:42;;;;;;;11.45;7.78;;;;;;;9.72;97.08;100529.69;5053861;28;20165;-67
2022/04/05 05:51:08;;;;;;;11.73;8.48;;;;;;;9.73;97.44;100530.59;5053898;28;20029;-67
2022/04/05 05:53:35;;;;;;;12.15;7.15;;;;;;;9.73;97.30;100530.59;5054378;28;20389;-67
2022/04/05 05:56:00;;;;;;;10.25;7.15;;;;;;;9.72;97.00;100527.06;5055365;28;20588;-67
2022/04/05 05:58:26;;;;;;;12.18;7.75;;;;;;;9.72;96.80;100540.25;5053905;28;20107;-67
2022/04/05 06:00:51;;;;;;;12.82;8.13;;;;;;;9.71;97.22;100541.09;5053581;28;20025;-67
2022/04/05 06:03:17;;;;;;;15.95;8.30;;;;;;;9.74;96.91;100546.41;5053378;28;20032;-68
2022/04/05 06:05:52;;;;;;;12.40;8.50;;;;;;;9.74;97.08;100543.78;5053343;28;20021;-67
2022/04/05 06:08:17;;;;;;;13.32;8.73;;;;;;;9.74;97.39;100538.50;5053662;28;20028;-67
2022/04/05 06:10:43;;;;;;;15.30;8.75;;;;;;;9.76;97.26;100543.78;5053649;28;20021;-67
2022/04/05 06:13:08;;;;;;;11.65;8.57;;;;;;;9.76;97.09;100541.13;5054825;28;20386;-67
2022/04/05 06:15:34;;;;;;;13.15;8.68;;;;;;;9.74;97.19;100546.41;5054048;28;20051;-67
2022/04/05 06:17:59;;;;;;;13.88;8.77;;;;;;;9.76;97.26;100547.31;5053414;28;20070;-67
2022/04/05 06:20:26;;;;;;;12.73;8.13;;;;;;;9.76;96.83;100552.59;5052863;28;20483;-68
2022/04/05 06:22:52;;;;;;;11.23;7.35;;;;;;;9.77;96.69;100553.50;5052946;28;20033;-68
2022/04/05 06:25:23;;;;;;;15.57;9.30;;;;;;;9.77;96.81;100559.66;5053159;28;20025;-67
2022/04/05 06:27:49;;;;;;;13.38;8.55;;;;;;;9.79;96.58;100554.38;5053090;28;20047;-67
2022/04/05 06:30:16;;;;;;;13.82;9.02;;;;;;;9.79;96.70;100562.28;5052979;28;20029;-67
2022/04/05 06:32:42;;;;;;;15.70;8.20;;;;;;;9.76;96.63;100557.88;5052785;28;20021;-67
2022/04/05 06:35:11;;;;;;;17.90;8.32;;;;;;;9.78;96.38;100555.25;5052749;28;20029;-67
2022/04/05 06:37:37;;;;;;;13.35;8.75;;;;;;;9.79;96.09;100555.25;5052724;28;20025;-67
2022/04/05 06:40:05;;;;;;;13.85;8.40;;;;;;;9.83;96.27;100574.63;5052788;28;20033;-67
2022/04/05 06:42:30;;;;;;;13.88;8.63;;;;;;;9.84;96.41;100571.13;5052406;28;20032;-67
2022/04/05 06:44:56;;;;;;;17.23;8.48;;;;;;;9.85;96.09;100572.91;5052690;28;20021;-67
2022/04/05 06:47:21;;;;;;;15.68;8.25;;;;;;;9.89;95.64;100573.81;5052639;28;20056;-67
2022/04/05 06:49:47;;;;;;;13.30;7.55;;;;;;;9.90;95.78;100573.84;5052610;28;20063;-67
2022/04/05 06:52:13;;;;;;;14.07;8.10;;;;;;;9.92;95.83;100571.19;5053571;28;20409;-67
2022/04/05 06:54:39;;;;;;;13.60;7.60;;;;;;;9.94;95.41;100575.63;5054442;28;20032;-67
2022/04/05 06:57:04;;;;;;;14.27;7.38;;;;;;;9.95;95.52;100573.88;5053233;28;20024;-67
2022/04/05 06:59:31;;;;;;;16.23;7.90;;;;;;;9.96;95.22;100580.91;5052358;28;20423;-67
2022/04/05 07:01:58;;;;;;;11.85;7.50;;;;;;;9.97;94.85;100583.56;5052425;28;20052;-67
2022/04/05 07:04:23;;;;;;;12.50;7.20;;;;;;;9.99;94.58;100575.69;5052233;28;20040;-67
2022/04/05 07:06:49;;;;;;;13.68;7.00;;;;;;;10.01;94.91;100584.47;5052070;28;20029;-67
2022/04/05 07:09:14;;;;;;;12.15;7.20;;;;;;;10.02;95.17;100588.88;5052300;28;20094;-67
2022/04/05 07:11:40;;;;;;;13.77;7.80;;;;;;;9.98;95.27;100582.72;5052546;28;20025;-67
2022/04/05 07:14:11;;;;;;;13.10;7.05;;;;;;;9.99;95.49;100591.50;5052154;28;20025;-67
2022/04/05 07:16:37;;;;;;;12.20;6.95;;;;;;;9.98;95.52;100589.75;5052358;28;20025;-67
2022/04/05 07:19:02;;;;;;;13.10;6.82;;;;;;;9.99;96.06;100588.88;5052198;28;20108;-67
2022/04/05 07:21:27;;;;;;;14.30;6.90;;;;;;;9.98;95.52;100590.63;5052153;28;20029;-68
2022/04/05 07:23:53;;;;;;;10.38;6.85;;;;;;;9.95;95.62;100592.34;5033995;28;20025;-68
2022/04/05 07:26:21;;;;;;;12.02;6.72;;;;;;;9.96;95.70;100581.78;5052324;28;20383;-68
2022/04/05 07:28:47;;;;;;;10.98;6.72;;;;;;;9.96;95.83;100578.28;5052031;28;20501;-68
2022/04/05 07:31:13;;;;;;;13.82;6.65;;;;;;;9.98;95.68;100577.44;5034182;28;20108;-67
2022/04/05 07:33:38;;;;;;;15.63;6.93;;;;;;;9.98;95.36;100574.78;5034428;28;20371;-67
2022/04/05 07:36:04;;;;;;;12.75;6.38;;;;;;;9.98;95.36;100572.16;5052221;28;20032;-67
2022/04/05 07:38:29;;;;;;;13.25;7.05;;;;;;;9.99;94.47;100570.41;5052142;28;20466;-68
2022/04/05 07:40:55;;;;;;;11.57;7.15;;;;;;;9.99;95.52;100570.41;5052262;28;20029;-67
2022/04/05 07:43:24;;;;;;;14.13;7.20;;;;;;;9.99;94.90;100570.41;5053743;28;20086;-67
2022/04/05 07:45:50;;;;;;;10.23;6.10;;;;;;;10.03;94.69;100575.72;5056085;28;20393;-67
2022/04/05 07:48:21;;;;;;;11.20;6.70;;;;;;;10.03;94.70;100569.56;5056160;28;20021;-67
2022/04/05 07:50:48;;;;;;;10.52;6.70;;;;;;;10.03;94.89;100574.84;5055792;28;20104;-67
2022/04/05 07:53:14;;;;;;;13.48;6.32;;;;;;;10.04;94.68;100580.09;5057510;28;20036;-67
2022/04/05 07:55:40;;;;;;;14.88;6.38;;;;;;;10.07;94.25;100578.38;5055878;28;20516;-67
2022/04/05 07:58:05;;;;;;;13.80;5.68;;;;;;;10.08;93.99;100588.94;5055864;28;20109;-67
2022/04/05 08:00:31;;;;;;;12.95;5.97;;;;;;;10.08;93.80;100581.03;5055947;28;20099;-67
2022/04/05 08:02:56;;;;;;;10.55;6.00;;;;;;;10.11;93.87;100582.81;5055741;28;20032;-67
2022/04/05 08:05:23;;;;;;;13.07;6.47;;;;;;;10.14;93.29;100588.97;5055754;28;20021;-67
2022/04/05 08:07:50;;;;;;;13.63;6.18;;;;;;;10.16;93.51;100587.25;5037987;28;20116;-67
2022/04/05 08:10:16;;;;;;;10.77;6.18;;;;;;;10.18;93.21;100582.84;5055787;28;20123;-67
2022/04/05 08:12:44;;;;;;;10.90;6.05;;;;;;;10.23;93.53;100574.97;5055571;28;20029;-67
2022/04/05 08:15:15;;;;;;;10.55;6.03;;;;;;;10.26;93.34;100586.47;5055742;28;20037;-66
2022/04/05 08:17:40;;;;;;;12.85;5.70;;;;;;;10.28;92.94;100595.31;5055673;28;20021;-67
2022/04/05 08:20:06;;;;;;;11.60;5.72;;;;;;;10.31;92.42;100589.16;5055457;28;20021;-67
2022/04/05 08:22:32;;;;;;;10.07;5.70;;;;;;;10.30;92.39;100591.78;5055260;28;21281;-66
2022/04/05 08:24:58;;;;;;;12.98;6.10;;;;;;;10.27;92.88;100590.88;5055235;28;20025;-66
2022/04/05 08:27:23;;;;;;;10.80;5.93;;;;;;;10.30;92.18;100590.03;5055278;28;20059;-66
2022/04/05 08:29:49;;;;;;;8.90;5.25;;;;;;;10.32;92.29;100597.97;5055157;28;20224;-66
2022/04/05 08:32:14;;;;;;;12.20;5.22;;;;;;;10.32;91.83;100600.59;5055497;28;20071;-67
2022/04/05 08:34:42;;;;;;;9.98;5.28;;;;;;;10.34;92.45;100598.88;5055253;28;20029;-66
2022/04/05 08:37:08;;;;;;;10.18;5.03;;;;;;;10.36;92.84;100594.47;5055311;28;20036;-66
2022/04/05 08:39:36;;;;;;;7.70;4.95;;;;;;;10.38;92.66;100598.91;5055151;28;20365;-66
2022/04/05 08:42:04;;;;;;;10.07;5.05;;;;;;;10.39;92.16;100590.09;5055070;28;20124;-66
2022/04/05 08:44:30;;;;;;;9.00;5.05;;;;;;;10.47;92.14;100608.66;5054704;28;20073;-66
2022/04/05 08:46:56;;;;;;;10.18;5.20;;;;;;;10.56;92.07;100606.06;5055073;28;20033;-66
2022/04/05 08:49:22;;;;;;;8.80;5.13;;;;;;;10.61;91.80;100608.75;5054659;28;20029;-66
2022/04/05 08:51:49;;;;;;;9.52;5.70;;;;;;;10.67;92.22;100603.50;5054813;28;20112;-66
2022/04/05 08:54:14;;;;;;;7.90;4.70;;;;;;;10.73;91.59;100604.44;5053661;28;20121;-66
2022/04/05 08:56:40;;;;;;;8.65;4.95;;;;;;;10.75;91.35;100602.69;5054533;28;20025;-66
2022/04/05 08:59:06;;;;;;;10.82;5.15;;;;;;;10.73;92.17;100598.25;5055028;28;20139;-66
2022/04/05 09:01:34;;;;;;;11.38;5.03;;;;;;;10.75;91.82;100602.69;5054518;28;20556;-66
2022/04/05 09:03:59;;;;;;;9.55;5.45;;;;;;;10.77;92.15;100607.97;5054595;28;20029;-66
2022/04/05 09:06:30;;;;;;;9.40;5.05;;;;;;;10.79;91.38;100611.50;5054374;28;20021;-66
2022/04/05 09:09:10;;;;;;;7.93;5.00;;;;;;;10.81;91.26;100608.88;5054495;28;20041;-66
2022/04/05 09:11:36;;;;;;;10.05;5.13;;;;;;;10.83;92.13;100615.94;5054482;28;20147;-66
2022/04/05 09:14:04;;;;;;;9.45;5.30;;;;;;;10.87;91.71;100611.53;5054601;28;20473;-66
2022/04/05 09:16:31;;;;;;;10.52;4.88;;;;;;;10.94;90.94;100616.00;5054423;28;20069;-66
2022/04/05 09:18:59;;;;;;;7.70;4.70;;;;;;;10.95;91.15;100615.13;5036436;28;20033;-67
2022/04/05 09:21:25;;;;;;;9.23;5.10;;;;;;;10.95;91.35;100615.13;5054467;28;20104;-67
2022/04/05 09:23:52;;;;;;;8.55;4.90;;;;;;;10.94;92.03;100611.59;5054514;28;20438;-66
2022/04/05 09:26:18;;;;;;;9.55;5.03;;;;;;;10.98;92.05;100617.78;5054189;28;20025;-66
2022/04/05 09:28:47;;;;;;;9.57;4.63;;;;;;;11.00;91.10;100619.53;5054114;28;20049;-65
2022/04/05 09:31:15;;;;;;;6.10;4.85;;;;;;;11.01;91.46;100618.69;5055043;28;20036;-66
2022/04/05 09:34:08;;;;;;;6.88;4.60;;;;;;;11.05;91.31;100624.88;5054857;28;20509;-67
2022/04/05 09:36:38;;;;;;;9.00;4.65;;;;;;;11.08;91.32;100624.88;5054181;28;20060;-66
2022/04/05 09:39:17;;;;;;;6.70;5.00;;;;;;;11.14;91.61;100627.56;5053820;28;20386;-67
2022/04/05 09:41:45;;;;;;;9.40;4.78;;;;;;;11.17;90.82;100630.22;5053984;28;20036;-65
2022/04/05 09:44:11;;;;;;;10.15;5.65;;;;;;;11.19;91.90;100628.47;5053647;28;20082;-66
2022/04/05 09:46:39;;;;;;;9.20;5.55;;;;;;;11.25;92.33;100632.91;5054035;28;20025;-67
2022/04/05 09:49:13;;;;;;;8.48;4.78;;;;;;;11.25;92.68;100625.84;5035872;28;20053;-66
2022/04/05 09:51:44;;;;;;;11.45;5.65;;;;;;;11.26;91.90;100638.22;5053745;28;20021;-66
2022/04/05 09:54:30;;;;;;;9.57;5.25;;;;;;;11.29;92.57;100635.56;5053706;28;20082;-65
2022/04/05 09:57:06;;;;;;;9.80;4.95;;;;;;;11.29;92.65;100638.22;5053630;28;20025;-66
2022/04/05 09:59:37;;;;;;;8.90;4.85;;;;;;;11.32;92.33;100633.81;5053631;28;20021;-66
2022/04/05 10:02:17;;;;;;;10.25;4.97;;;;;;;11.36;92.49;100627.66;5053873;28;20446;-66
2022/04/05 10:05:01;;;;;;;7.43;5.00;;;;;;;11.38;92.11;100629.44;5053423;28;20033;-67
2022/04/05 10:07:28;;;;;;;8.80;4.65;;;;;;;11.38;92.10;100634.72;5053170;28;20033;-66
2022/04/05 10:09:54;;;;;;;8.27;4.10;;;;;;;11.39;91.38;100636.50;5035536;28;20029;-66
2022/04/05 10:12:20;;;;;;;7.90;4.97;;;;;;;11.42;91.96;100638.25;5053530;28;20114;-67
2022/04/05 10:14:45;;;;;;;7.07;4.90;;;;;;;11.46;92.05;100642.69;5053326;28;20437;-67
2022/04/05 10:17:13;;;;;;;8.55;4.80;;;;;;;11.44;92.19;100642.69;5053221;28;20477;-65
2022/04/05 10:19:42;;;;;;;7.00;4.70;;;;;;;11.48;91.20;100640.94;5053137;28;20029;-68
2022/04/05 10:22:09;;;;;;;7.97;5.07;;;;;;;11.52;91.54;100648.03;5053003;28;20025;-66
2022/04/05 10:24:34;;;;;;;9.40;5.10;;;;;;;11.59;92.05;100646.25;5053150;28;20040;-67
2022/04/05 10:27:01;;;;;;;7.45;4.50;;;;;;;11.63;90.64;100640.09;5052994;28;20021;-66
2022/04/05 10:29:27;;;;;;;7.55;4.57;;;;;;;11.64;90.60;100640.09;5052928;28;20452;-66
2022/04/05 10:32:30;;;;;;;9.10;4.90;;;;;;;11.68;91.33;100646.28;5052929;28;20489;-66
2022/04/05 10:35:02;;;;;;;7.00;4.35;;;;;;;11.72;90.29;100637.47;5052972;28;20025;-66
2022/04/05 10:37:39;;;;;;;9.07;4.40;;;;;;;11.77;90.19;100647.19;5052694;28;20032;-66
2022/04/05 10:40:05;;;;;;;6.53;4.30;;;;;;;11.78;89.02;100638.41;5052960;28;20389;-67
2022/04/05 10:42:37;;;;;;;8.15;4.43;;;;;;;11.77;89.30;100638.38;5052603;28;20025;-66
2022/04/05 10:45:18;;;;;;;6.53;4.45;;;;;;;11.79;89.10;100633.97;5053294;28;20077;-67
2022/04/05 10:48:05;;;;;;;8.10;4.60;;;;;;;11.74;88.96;100631.31;5052935;28;20048;-66
2022/04/05 10:50:30;;;;;;;8.45;4.50;;;;;;;11.75;87.90;100633.09;5053202;28;20033;-66
2022/04/05 10:56:18;;;;;;;6.63;4.22;;;;;;;11.87;88.86;100639.34;5053691;28;20040;-66
2022/04/05 10:59:16;;;;;;;7.40;4.20;;;;;;;11.93;88.36;100632.25;5052589;28;20386;-66
2022/04/05 11:01:46;;;;;;;8.13;4.22;;;;;;;11.99;88.60;100639.31;5052774;28;20090;-66
2022/04/05 11:04:12;;;;;;;6.30;4.20;;;;;;;12.03;87.53;100634.06;5052276;28;20132;-64
2022/04/05 11:06:59;;;;;;;9.20;4.18;;;;;;;12.09;87.88;100627.88;5052588;28;20430;-65
2022/04/05 11:09:25;;;;;;;6.47;4.10;;;;;;;12.10;86.93;100624.34;5052311;28;20028;-65
2022/04/05 11:11:52;;;;;;;7.32;4.47;;;;;;;12.09;87.04;100625.22;5052647;28;20021;-67
2022/04/05 11:14:45;;;;;;;10.02;4.38;;;;;;;12.15;87.18;100621.69;5034680;28;20100;-66
2022/04/05 11:17:14;;;;;;;8.55;4.07;;;;;;;12.20;86.53;100623.47;4951984;28;20118;-66
2022/04/05 11:19:50;;;;;;;5.35;3.80;;;;;;;12.25;85.37;100621.72;4952140;29;20059;-65
2022/04/05 11:22:21;;;;;;;6.03;3.83;;;;;;;12.26;85.61;100634.06;4936192;29;20043;-65
2022/04/05 11:25:03;;;;;;;5.25;3.88;;;;;;;12.22;85.56;100632.31;4952388;29;20103;-66
2022/04/05 11:27:32;;;;;;;9.32;4.18;;;;;;;12.18;86.20;100625.25;4952279;29;20342;-65
2022/04/05 11:30:36;;;;;;;5.60;3.70;;;;;;;12.17;85.12;100627.91;4951983;28;20047;-64